Time;durP1;ratioP1;P1;durP2;ratioP2;P2;SDS_P1;SDS_P2;PMS_P1;PMS_P2;Temp;Humidity;BMP_temperature;BMP_pressure;BME280_temperature;BME280_humidity;BME280_pressure;Samples;Min_cycle;Max_cycle;Signal;HPM_P1;HPM_P2
2024/03/14 00:00:17;;;;;;;89.40;46.80;;;;;;;5.91;85.54;100395.27;130071;1275;114737;-63
2024/03/14 00:03:39;;;;;;;92.00;44.20;;;;;;;5.94;85.77;100393.77;130093;1256;114717;-63
2024/03/14 00:06:46;;;;;;;81.10;43.80;;;;;;;5.96;85.65;100393.55;130223;1253;114769;-63
2024/03/14 00:09:48;;;;;;;87.60;44.80;;;;;;;5.99;85.83;100388.49;129993;1257;114894;-63
2024/03/14 00:12:51;;;;;;;86.70;44.50;;;;;;;6.01;85.83;100382.79;130165;1257;114705;-63
2024/03/14 00:15:54;;;;;;;89.30;43.80;;;;;;;6.03;85.73;100379.52;130142;1258;114792;-63
2024/03/14 00:18:58;;;;;;;82.80;43.60;;;;;;;6.06;85.97;100383.17;130245;1274;114715;-63
2024/03/14 00:22:00;;;;;;;85.00;47.10;;;;;;;6.08;85.63;100380.98;130534;1257;114779;-63
2024/03/14 00:25:02;;;;;;;85.00;43.10;;;;;;;6.10;85.88;100379.17;130307;1254;290606;-63
2024/03/14 00:28:04;;;;;;;87.10;46.70;;;;;;;6.12;86.07;100376.10;130474;1256;114686;-63
2024/03/14 00:31:07;;;;;;;81.80;41.00;;;;;;;6.14;85.92;100379.40;130125;1260;114677;-63
2024/03/14 00:34:09;;;;;;;78.60;42.70;;;;;;;6.15;85.97;100380.42;130467;1257;114779;-63
2024/03/14 00:37:11;;;;;;;75.60;40.30;;;;;;;6.16;86.14;100378.80;130524;1275;114712;-64
2024/03/14 00:40:13;;;;;;;83.50;44.40;;;;;;;6.18;86.12;100374.85;130320;1266;114778;-63
2024/03/14 00:43:18;;;;;;;82.00;43.30;;;;;;;6.21;86.41;100369.96;130214;1275;114699;-64
2024/03/14 00:46:20;;;;;;;76.60;41.10;;;;;;;6.25;86.53;100370.21;130522;1254;114766;-64
2024/03/14 00:49:23;;;;;;;75.40;42.30;;;;;;;6.29;86.44;100369.39;130641;1257;114723;-63
2024/03/14 00:52:26;;;;;;;69.90;37.40;;;;;;;6.31;86.65;100364.87;129921;1260;116494;-64
2024/03/14 00:55:31;;;;;;;69.10;37.70;;;;;;;6.33;86.83;100361.96;130200;1275;115249;-63
2024/03/14 00:58:34;;;;;;;73.30;37.70;;;;;;;6.36;86.60;100358.67;130059;1255;128866;-63
2024/03/14 01:01:36;;;;;;;70.30;38.10;;;;;;;6.38;86.56;100354.88;130025;1260;114766;-65
2024/03/14 01:04:39;;;;;;;67.10;37.20;;;;;;;6.41;86.53;100352.70;130186;1254;115188;-63
2024/03/14 01:07:41;;;;;;;66.50;36.40;;;;;;;6.43;86.75;100347.66;130463;1254;114762;-64
2024/03/14 01:10:43;;;;;;;64.90;36.20;;;;;;;6.44;86.65;100343.71;130381;1267;114784;-63
2024/03/14 01:13:45;;;;;;;76.50;40.90;;;;;;;6.45;86.63;100343.85;130207;1275;114877;-64
2024/03/14 01:16:49;;;;;;;67.30;36.70;;;;;;;6.47;86.74;100338.29;130347;1257;115322;-64
2024/03/14 01:19:51;;;;;;;67.70;36.10;;;;;;;6.48;86.81;100334.17;130010;1275;114736;-63
2024/03/14 01:22:53;;;;;;;70.80;40.60;;;;;;;6.50;86.91;100335.02;130068;1275;114797;-65
2024/03/14 01:25:55;;;;;;;68.40;36.20;;;;;;;6.51;86.95;100334.81;130251;1254;114793;-63
2024/03/14 01:28:59;;;;;;;65.30;35.80;;;;;;;6.52;87.00;100331.42;130404;1275;115474;-64
2024/03/14 01:32:01;;;;;;;64.80;34.90;;;;;;;6.53;87.21;100330.13;130019;1275;114999;-66
2024/03/14 01:35:05;;;;;;;65.80;38.40;;;;;;;6.54;87.38;100324.92;130081;1275;114740;-66
2024/03/14 01:38:07;;;;;;;66.10;37.40;;;;;;;6.55;87.23;100325.44;130369;1267;115332;-65
2024/03/14 01:41:19;;;;;;;69.20;38.10;;;;;;;6.56;87.47;100323.64;130447;1273;114817;-63
2024/03/14 01:44:21;;;;;;;70.90;38.30;;;;;;;6.58;87.22;100321.80;129917;1261;116437;-64
2024/03/14 01:47:24;;;;;;;77.90;39.00;;;;;;;6.58;87.36;100316.12;130205;1275;114814;-64
2024/03/14 01:50:26;;;;;;;80.60;39.90;;;;;;;6.59;87.38;100319.83;130181;1275;114741;-63
2024/03/14 01:53:28;;;;;;;78.20;44.10;;;;;;;6.59;87.37;100317.16;130158;1275;114709;-64
2024/03/14 01:56:31;;;;;;;68.90;38.80;;;;;;;6.59;87.47;100313.97;130478;1256;114707;-63
2024/03/14 01:59:33;;;;;;;81.70;44.40;;;;;;;6.58;87.48;100316.85;130145;1271;114706;-63
2024/03/14 02:02:35;;;;;;;77.90;41.20;;;;;;;6.58;87.57;100313.63;130489;1275;114813;-63
2024/03/14 02:05:47;;;;;;;75.20;43.80;;;;;;;6.59;87.74;100314.84;130200;1273;114778;-65
2024/03/14 02:08:49;;;;;;;;;;;;;;;6.60;87.72;100310.75;129823;1257;114954;-63
2024/03/14 02:11:52;;;;;;;71.30;36.50;;;;;;;6.58;87.89;100309.72;130216;1256;114728;-64
2024/03/14 02:14:54;;;;;;;68.00;37.70;;;;;;;6.57;87.88;100305.34;130178;1275;114741;-64
2024/03/14 02:17:57;;;;;;;66.10;40.30;;;;;;;6.58;87.56;100304.42;130270;1254;115080;-63
2024/03/14 02:20:59;;;;;;;73.20;41.30;;;;;;;6.59;88.05;100302.24;130143;1257;114877;-63
2024/03/14 02:24:02;;;;;;;63.00;35.60;;;;;;;6.59;87.76;100299.05;130210;1275;115074;-63
2024/03/14 02:27:06;;;;;;;52.90;31.70;;;;;;;6.57;88.05;100298.41;130249;1272;114711;-64
2024/03/14 02:30:09;;;;;;;63.90;35.20;;;;;;;6.55;88.03;100298.46;130346;1272;115212;-63
2024/03/14 02:33:11;;;;;;;63.10;34.60;;;;;;;6.53;88.01;100300.30;130568;1257;114818;-63
2024/03/14 02:36:15;;;;;;;66.80;36.70;;;;;;;6.54;87.99;100296.38;130600;1253;114737;-63
2024/03/14 02:39:22;;;;;;;64.10;33.00;;;;;;;6.56;88.09;100298.96;130108;1275;114817;-63
2024/03/14 02:42:24;;;;;;;59.70;36.50;;;;;;;6.59;88.25;100299.43;130180;1275;114743;-64
2024/03/14 02:45:27;;;;;;;62.40;36.60;;;;;;;6.60;88.08;100297.61;130097;1256;114734;-65
2024/03/14 02:48:30;;;;;;;62.40;34.40;;;;;;;6.61;88.29;100298.98;130098;1270;114759;-65
2024/03/14 02:51:32;;;;;;;61.40;34.30;;;;;;;6.63;88.50;100304.77;130367;1254;114816;-63
2024/03/14 02:54:35;;;;;;;60.40;34.30;;;;;;;6.65;88.32;100305.95;130465;1275;114786;-63
2024/03/14 02:57:37;;;;;;;72.20;39.10;;;;;;;6.65;88.31;100302.77;130156;1275;114772;-62
2024/03/14 03:00:40;;;;;;;62.30;35.30;;;;;;;6.65;88.28;100300.80;130051;1257;114749;-62
2024/03/14 03:03:44;;;;;;;51.00;31.30;;;;;;;6.65;88.61;100300.45;130187;1275;115423;-64
2024/03/14 03:06:53;;;;;;;60.30;33.50;;;;;;;6.65;88.44;100302.39;130130;1272;115212;-66
2024/03/14 03:09:55;;;;;;;61.80;35.30;;;;;;;6.67;88.37;100305.02;130213;1259;114757;-63
2024/03/14 03:12:57;;;;;;;56.10;33.10;;;;;;;6.67;88.59;100301.27;130273;1275;114726;-63
2024/03/14 03:16:02;;;;;;;57.70;32.70;;;;;;;6.68;88.46;100297.16;130278;1275;114750;-63
2024/03/14 03:19:04;;;;;;;46.70;27.40;;;;;;;6.69;88.69;100292.88;130224;1256;114734;-63
2024/03/14 03:22:06;;;;;;;44.40;26.90;;;;;;;6.68;88.37;100290.95;130134;1252;114728;-63
2024/03/14 03:25:09;;;;;;;52.10;28.00;;;;;;;6.66;88.42;100289.23;130330;1270;115077;-63
2024/03/14 03:28:12;;;;;;;49.80;28.40;;;;;;;6.67;88.48;100293.99;129895;1258;114686;-63
2024/03/14 03:31:14;;;;;;;52.50;29.50;;;;;;;6.66;88.64;100305.73;130211;1256;115381;-64
2024/03/14 03:34:19;;;;;;;50.00;30.20;;;;;;;6.65;88.57;100308.24;130150;1275;114753;-63
2024/03/14 03:37:21;;;;;;;51.50;30.60;;;;;;;6.65;88.63;100305.25;129901;1275;114763;-65
2024/03/14 03:40:24;;;;;;;52.30;29.70;;;;;;;6.65;88.58;100303.45;130198;1275;114800;-62
2024/03/14 03:43:26;;;;;;;61.20;32.30;;;;;;;6.65;88.68;100302.05;130146;1270;114801;-66
2024/03/14 03:46:28;;;;;;;57.40;33.40;;;;;;;6.67;88.97;100300.56;130253;1256;114744;-63
2024/03/14 03:49:32;;;;;;;57.20;32.80;;;;;;;6.67;88.97;100303.75;130129;1275;115244;-64
2024/03/14 03:52:37;;;;;;;55.50;31.90;;;;;;;6.68;88.78;100308.33;130277;1254;115388;-65
2024/03/14 03:55:39;;;;;;;58.40;36.10;;;;;;;6.69;88.78;100305.65;130207;1256;115485;-63
2024/03/14 03:58:42;;;;;;;57.90;33.90;;;;;;;6.68;88.97;100306.38;130184;1275;114827;-65
2024/03/14 04:01:46;;;;;;;51.80;29.80;;;;;;;6.68;88.96;100302.66;130230;1256;115090;-63
2024/03/14 04:04:48;;;;;;;62.90;35.50;;;;;;;6.67;88.99;100304.46;130111;1257;114791;-63
2024/03/14 04:07:55;;;;;;;55.20;33.00;;;;;;;6.68;89.02;100307.27;130230;1254;115323;-64
2024/03/14 04:10:57;;;;;;;59.90;33.50;;;;;;;6.68;89.03;100306.73;130266;1257;114708;-63
2024/03/14 04:13:59;;;;;;;60.60;34.30;;;;;;;6.70;89.04;100307.20;130161;1257;114734;-64
2024/03/14 04:17:01;;;;;;;55.90;34.20;;;;;;;6.72;88.98;100306.45;130156;1254;114865;-63
2024/03/14 04:20:11;;;;;;;60.10;33.30;;;;;;;6.72;89.05;100310.34;130379;1266;114701;-64
2024/03/14 04:23:14;;;;;;;55.50;32.20;;;;;;;6.72;89.21;100313.70;130154;1252;114728;-62
2024/03/14 04:26:17;;;;;;;57.40;35.30;;;;;;;6.71;89.09;100312.84;130061;1256;114739;-64
2024/03/14 04:29:20;;;;;;;55.10;33.60;;;;;;;6.72;89.20;100318.67;130173;1275;115160;-65
2024/03/14 04:32:23;;;;;;;60.70;33.60;;;;;;;6.73;89.08;100319.20;130275;1275;114855;-63
2024/03/14 04:35:25;;;;;;;69.20;40.50;;;;;;;6.73;89.11;100320.77;130174;1275;114718;-63
2024/03/14 04:38:27;;;;;;;53.60;31.70;;;;;;;6.71;89.13;100322.09;130218;1256;114982;-64
2024/03/14 04:41:30;;;;;;;60.10;35.00;;;;;;;6.68;89.12;100320.23;130081;1254;115854;-63
2024/03/14 04:44:35;;;;;;;59.60;33.60;;;;;;;6.67;89.19;100322.58;130212;1257;114761;-62
2024/03/14 04:47:38;;;;;;;;;;;;;;;6.63;89.18;100322.69;129888;1275;115151;-63
2024/03/14 04:50:43;;;;;;;55.00;28.80;;;;;;;6.60;89.29;100322.82;130124;1269;115106;-63
2024/03/14 04:53:45;;;;;;;40.50;23.50;;;;;;;6.58;89.19;100327.30;130133;1257;114690;-64
2024/03/14 04:56:48;;;;;;;57.10;33.40;;;;;;;6.58;89.67;100327.12;130157;1253;114724;-62
2024/03/14 04:59:50;;;;;;;42.20;23.70;;;;;;;6.59;89.69;100329.94;130316;1257;115079;-62
2024/03/14 05:02:55;;;;;;;57.10;30.40;;;;;;;6.58;89.58;100329.44;130169;1257;114735;-63
2024/03/14 05:05:58;;;;;;;48.70;26.80;;;;;;;6.59;89.64;100330.65;130009;1260;114769;-62
2024/03/14 05:09:00;;;;;;;55.50;31.10;;;;;;;6.60;89.74;100331.68;130197;1275;114631;-62
2024/03/14 05:12:03;;;;;;;49.30;28.90;;;;;;;6.62;89.44;100337.48;130147;1275;115183;-63
2024/03/14 05:15:07;;;;;;;52.30;30.40;;;;;;;6.63;89.71;100332.10;130232;1275;115001;-63
2024/03/14 05:18:09;;;;;;;49.50;27.60;;;;;;;6.64;89.94;100334.92;130514;1253;114770;-63
2024/03/14 05:21:13;;;;;;;51.70;30.20;;;;;;;6.66;89.67;100334.15;129985;1264;116350;-63
2024/03/14 05:24:17;;;;;;;49.30;28.40;;;;;;;6.68;89.66;100332.64;129986;1275;114909;-63
2024/03/14 05:27:19;;;;;;;33.40;21.20;;;;;;;6.70;89.73;100334.38;130219;1275;114792;-63
2024/03/14 05:30:23;;;;;;;50.60;27.60;;;;;;;6.69;89.76;100335.98;130217;1254;114734;-63
2024/03/14 05:33:25;;;;;;;42.90;23.30;;;;;;;6.71;89.56;100335.77;130360;1254;114872;-64
2024/03/14 05:36:27;;;;;;;47.00;26.70;;;;;;;6.72;89.84;100335.73;130100;1257;114731;-63
2024/03/14 05:39:29;;;;;;;46.10;25.50;;;;;;;6.73;89.72;100333.55;130289;1256;114721;-63
2024/03/14 05:42:31;;;;;;;37.30;23.70;;;;;;;6.74;89.85;100332.45;130477;1256;114714;-63
2024/03/14 05:45:34;;;;;;;45.00;25.40;;;;;;;6.74;89.75;100327.14;130263;1275;114757;-64
2024/03/14 05:48:36;;;;;;;45.60;25.90;;;;;;;6.76;89.80;100329.38;130546;1257;114772;-62
2024/03/14 05:51:38;;;;;;;47.00;26.60;;;;;;;6.80;90.03;100330.46;130164;1275;114715;-64
2024/03/14 05:54:40;;;;;;;52.50;27.00;;;;;;;6.85;90.14;100334.23;130297;1253;114705;-63
2024/03/14 05:57:43;;;;;;;57.10;30.90;;;;;;;6.91;90.24;100342.36;130224;1256;115249;-63
2024/03/14 06:00:45;;;;;;;52.20;28.70;;;;;;;6.97;89.96;100344.45;130257;1253;114728;-63
2024/03/14 06:03:47;;;;;;;53.60;28.80;;;;;;;7.06;90.31;100342.75;130179;1266;114798;-63
2024/03/14 06:06:50;;;;;;;51.10;30.70;;;;;;;7.15;90.21;100339.07;130388;1275;115411;-63
2024/03/14 06:09:52;;;;;;;51.90;28.60;;;;;;;7.23;90.42;100337.35;130282;1270;114692;-63
2024/03/14 06:12:54;;;;;;;47.70;27.30;;;;;;;7.32;90.10;100338.64;130269;1256;114730;-63
2024/03/14 06:15:57;;;;;;;48.80;27.60;;;;;;;7.42;90.30;100338.99;130023;1256;115383;-63
2024/03/14 06:18:59;;;;;;;48.60;27.20;;;;;;;7.51;90.19;100339.75;130206;1256;114791;-64
2024/03/14 06:22:02;;;;;;;48.90;27.90;;;;;;;7.61;90.16;100339.41;130183;1275;114711;-63
2024/03/14 06:25:07;;;;;;;47.10;26.70;;;;;;;7.71;90.03;100339.20;130289;1257;114792;-63
2024/03/14 06:28:09;;;;;;;49.20;26.60;;;;;;;7.82;89.88;100338.80;130233;1275;114799;-64
2024/03/14 06:31:15;;;;;;;46.80;29.50;;;;;;;7.93;89.76;100338.92;130291;1275;114712;-63
2024/03/14 06:34:17;;;;;;;44.60;26.70;;;;;;;8.05;89.69;100340.60;130041;1275;116543;-62
2024/03/14 06:37:19;;;;;;;49.50;30.00;;;;;;;8.14;89.52;100342.02;130190;1269;114770;-64
2024/03/14 06:40:22;;;;;;;53.40;30.70;;;;;;;8.25;89.63;100338.23;130102;1275;114753;-64
2024/03/14 06:43:25;;;;;;;49.60;29.40;;;;;;;8.38;89.49;100341.11;130258;1253;114714;-63
2024/03/14 06:46:28;;;;;;;48.60;28.20;;;;;;;8.51;89.35;100340.08;130236;1272;114696;-63
2024/03/14 06:49:31;;;;;;;49.90;28.70;;;;;;;8.60;88.88;100343.27;130289;1275;115111;-63
2024/03/14 06:52:34;;;;;;;47.30;30.80;;;;;;;8.67;88.74;100345.33;130453;1272;114703;-63
2024/03/14 06:55:37;;;;;;;48.50;27.50;;;;;;;8.74;88.93;100345.20;130606;1257;114730;-64
2024/03/14 06:58:39;;;;;;;49.70;27.70;;;;;;;8.83;88.53;100342.17;130550;1266;114734;-63
2024/03/14 07:01:41;;;;;;;50.10;28.70;;;;;;;8.90;88.13;100341.16;129861;1259;114843;-64
2024/03/14 07:04:43;;;;;;;53.20;27.40;;;;;;;8.94;87.88;100343.63;130173;1256;114805;-62
2024/03/14 07:07:45;;;;;;;50.40;27.20;;;;;;;9.03;87.93;100343.63;130387;1256;115070;-63
2024/03/14 07:10:49;;;;;;;46.80;27.10;;;;;;;9.20;88.12;100345.59;130178;1257;128688;-62
2024/03/14 07:13:56;;;;;;;43.20;28.00;;;;;;;9.40;87.71;100348.11;129958;1275;114818;-62
2024/03/14 07:16:58;;;;;;;50.50;31.60;;;;;;;9.55;87.43;100353.16;129969;1254;114805;-63
2024/03/14 07:20:10;;;;;;;43.90;27.00;;;;;;;9.75;87.18;100351.59;130192;1256;115388;-62
2024/03/14 07:23:15;;;;;;;42.00;26.30;;;;;;;9.98;86.99;100350.70;130042;1257;114926;-62
2024/03/14 07:26:22;;;;;;;39.40;24.80;;;;;;;10.30;86.98;100349.92;130157;1257;129589;-62
2024/03/14 07:29:25;;;;;;;41.90;27.30;;;;;;;10.60;86.48;100347.80;130023;1275;114776;-63
2024/03/14 07:32:28;;;;;;;41.10;25.40;;;;;;;10.87;86.13;100350.92;130518;1253;114738;-62
2024/03/14 07:35:30;;;;;;;43.70;24.50;;;;;;;11.17;86.08;100351.05;130261;1256;114727;-63
2024/03/14 07:38:34;;;;;;;40.20;26.40;;;;;;;11.42;85.07;100352.59;130105;1254;114698;-63
2024/03/14 07:41:40;;;;;;;39.00;24.70;;;;;;;11.66;84.85;100351.53;130217;1257;114769;-63
2024/03/14 07:44:45;;;;;;;38.90;24.90;;;;;;;11.93;84.13;100354.77;130296;1254;115146;-63
2024/03/14 07:47:53;;;;;;;33.20;23.60;;;;;;;12.19;83.91;100357.34;130307;1256;114739;-62
2024/03/14 07:50:59;;;;;;;40.60;26.60;;;;;;;12.50;83.40;100352.02;130312;1257;114849;-63
2024/03/14 07:54:01;;;;;;;34.60;22.20;;;;;;;12.78;82.84;100356.67;130148;1254;114698;-63
2024/03/14 07:57:03;;;;;;;43.20;26.30;;;;;;;12.97;81.94;100354.48;130233;1256;114749;-63
2024/03/14 08:00:14;;;;;;;36.60;25.40;;;;;;;13.20;81.67;100352.80;130235;1258;114813;-63
2024/03/14 08:03:17;;;;;;;37.20;21.40;;;;;;;13.45;80.57;100354.21;129924;1252;114830;-65
2024/03/14 08:06:19;;;;;;;36.90;24.50;;;;;;;13.71;80.66;100354.58;130129;1256;114730;-63
2024/03/14 08:09:26;;;;;;;31.10;20.60;;;;;;;13.97;79.65;100351.77;130324;1256;115395;-63
2024/03/14 08:12:33;;;;;;;32.20;22.00;;;;;;;14.13;78.84;100352.02;130216;1256;114719;-62
2024/03/14 08:15:35;;;;;;;37.70;23.70;;;;;;;14.27;78.09;100353.23;129941;1255;128162;-66
2024/03/14 08:18:38;;;;;;;35.80;25.00;;;;;;;14.47;77.88;100356.15;130174;1269;114743;-64
2024/03/14 08:21:40;;;;;;;34.30;24.10;;;;;;;14.70;77.59;100354.98;130209;1256;114772;-63
2024/03/14 08:24:46;;;;;;;32.20;22.00;;;;;;;14.95;77.34;100354.45;130209;1258;114686;-66
2024/03/14 08:27:49;;;;;;;33.30;23.30;;;;;;;15.13;76.14;100357.17;130090;1254;114683;-65
2024/03/14 08:30:51;;;;;;;27.40;20.70;;;;;;;15.26;75.65;100354.83;130200;1257;114763;-63
2024/03/14 08:33:55;;;;;;;31.60;22.00;;;;;;;15.45;74.80;100357.17;130163;1256;114766;-66
2024/03/14 08:36:58;;;;;;;31.10;22.30;;;;;;;15.56;74.29;100357.90;130411;1255;114674;-65
2024/03/14 08:40:05;;;;;;;29.50;21.60;;;;;;;15.59;73.57;100360.35;130381;1256;114752;-64
2024/03/14 08:43:07;;;;;;;32.00;22.80;;;;;;;15.55;72.49;100364.44;130170;1257;114696;-64
2024/03/14 08:46:09;;;;;;;28.10;19.00;;;;;;;15.48;72.28;100366.88;130262;1257;114757;-64
2024/03/14 08:49:14;;;;;;;29.50;22.10;;;;;;;15.40;71.34;100366.48;130192;1270;114789;-65
2024/03/14 08:52:16;;;;;;;28.80;21.50;;;;;;;15.29;71.28;100370.69;129968;1275;128629;-62
2024/03/14 08:55:25;;;;;;;32.60;22.40;;;;;;;15.25;70.99;100373.47;130156;1275;115186;-63
2024/03/14 08:58:30;;;;;;;32.80;22.60;;;;;;;15.22;71.16;100371.93;130138;1257;115154;-63
2024/03/14 09:01:33;;;;;;;34.60;24.90;;;;;;;15.21;70.95;100368.20;130236;1257;115140;-63
2024/03/14 09:04:35;;;;;;;35.20;22.00;;;;;;;15.19;70.82;100371.16;130226;1256;114795;-63
2024/03/14 09:07:40;;;;;;;34.40;23.30;;;;;;;15.13;69.26;100371.95;130277;1254;114877;-63
2024/03/14 09:10:42;;;;;;;32.30;21.40;;;;;;;15.06;69.97;100371.56;129903;1264;114933;-62
2024/03/14 09:13:45;;;;;;;34.00;23.20;;;;;;;15.06;69.32;100370.95;130142;1256;114705;-64
2024/03/14 09:16:47;;;;;;;34.30;23.40;;;;;;;15.09;69.59;100372.91;130203;1269;114670;-65
2024/03/14 09:19:49;;;;;;;28.70;21.50;;;;;;;15.15;69.56;100375.44;130325;1266;114782;-63
2024/03/14 09:22:55;;;;;;;32.80;24.30;;;;;;;15.20;69.34;100375.80;129909;1259;114705;-63
2024/03/14 09:25:58;;;;;;;33.90;22.30;;;;;;;15.23;68.95;100370.93;130320;1266;129015;-63
2024/03/14 09:29:00;;;;;;;24.80;16.70;;;;;;;15.27;68.99;100371.57;130197;1275;114776;-63
2024/03/14 09:32:05;;;;;;;33.90;24.40;;;;;;;15.27;68.03;100370.79;130116;1254;114737;-63
2024/03/14 09:35:12;;;;;;;36.10;25.70;;;;;;;15.23;68.20;100367.68;130120;1254;114675;-64
2024/03/14 09:38:15;;;;;;;36.70;25.70;;;;;;;15.24;68.01;100364.55;129898;1254;114806;-63
2024/03/14 09:41:17;;;;;;;39.10;23.50;;;;;;;15.24;67.62;100361.02;130148;1254;114721;-65
2024/03/14 09:44:23;;;;;;;32.40;23.30;;;;;;;15.18;67.07;100358.79;130070;1254;114781;-64
2024/03/14 09:47:37;;;;;;;35.30;23.80;;;;;;;15.21;67.72;100361.34;130009;1254;115151;-63
2024/03/14 09:50:41;;;;;;;29.80;21.50;;;;;;;15.27;67.12;100360.36;130088;1259;114774;-64
2024/03/14 09:53:45;;;;;;;30.30;21.80;;;;;;;15.28;66.69;100357.27;130441;1255;114628;-64
2024/03/14 09:56:48;;;;;;;26.70;19.70;;;;;;;15.29;66.70;100348.20;130121;1256;128535;-64
2024/03/14 09:59:51;;;;;;;26.10;19.40;;;;;;;15.29;66.23;100345.45;130564;1257;114696;-64
2024/03/14 10:02:55;;;;;;;27.10;17.70;;;;;;;15.29;65.62;100347.83;130312;1256;114845;-64
2024/03/14 10:05:57;;;;;;;29.60;19.60;;;;;;;15.23;64.96;100347.52;130556;1256;114712;-64
2024/03/14 10:08:59;;;;;;;25.70;20.20;;;;;;;15.18;65.04;100338.89;130443;1261;114681;-64
2024/03/14 10:12:02;;;;;;;26.50;19.40;;;;;;;15.17;65.25;100343.09;130491;1256;116442;-64
2024/03/14 10:15:12;;;;;;;26.20;18.20;;;;;;;15.15;64.86;100340.30;129821;1259;128389;-64
2024/03/14 10:18:14;;;;;;;25.60;18.60;;;;;;;15.14;64.78;100344.19;130015;1252;116470;-65
2024/03/14 10:21:18;;;;;;;21.80;15.50;;;;;;;15.13;64.14;100342.11;130641;1275;115318;-63
2024/03/14 10:24:22;;;;;;;21.30;16.30;;;;;;;15.10;62.94;100339.96;130574;1275;114756;-63
2024/03/14 10:27:25;;;;;;;22.60;17.00;;;;;;;15.07;63.10;100333.33;130042;1259;114683;-63
2024/03/14 10:30:28;;;;;;;22.60;16.90;;;;;;;15.09;63.04;100332.45;130186;1275;114821;-63
2024/03/14 10:33:30;;;;;;;23.10;16.00;;;;;;;15.08;62.56;100333.25;130198;1275;115170;-62
2024/03/14 10:36:32;;;;;;;22.10;17.10;;;;;;;15.11;62.24;100328.94;130432;1256;115335;-64
2024/03/14 10:39:36;;;;;;;24.40;16.70;;;;;;;15.10;62.00;100329.71;130672;1256;115210;-63
2024/03/14 10:42:38;;;;;;;25.10;17.00;;;;;;;15.13;62.51;100327.69;130207;1259;115063;-64
2024/03/14 10:45:42;;;;;;;26.10;19.30;;;;;;;15.14;62.68;100325.86;130401;1256;115043;-63
2024/03/14 10:48:45;;;;;;;21.20;14.60;;;;;;;15.18;62.20;100323.73;130344;1269;114723;-63
2024/03/14 10:51:49;;;;;;;22.10;16.20;;;;;;;15.18;61.20;100321.04;130016;1275;115064;-63
2024/03/14 10:54:53;;;;;;;24.60;15.30;;;;;;;15.19;61.24;100319.20;130252;1266;114712;-66
2024/03/14 10:57:57;;;;;;;19.80;13.40;;;;;;;15.27;61.64;100319.70;129969;1257;114746;-65
2024/03/14 11:01:00;;;;;;;19.50;15.40;;;;;;;15.37;60.78;100310.02;130247;1256;115372;-66
2024/03/14 11:04:02;;;;;;;17.60;12.30;;;;;;;15.39;60.18;100305.54;130431;1275;115052;-63
2024/03/14 11:07:08;;;;;;;21.70;14.30;;;;;;;15.34;58.74;100306.85;130180;1275;114789;-63
2024/03/14 11:10:19;;;;;;;15.40;10.20;;;;;;;15.27;58.83;100304.42;130160;1257;115154;-66
2024/03/14 11:13:26;;;;;;;14.30;11.30;;;;;;;15.28;58.35;100300.61;130050;1259;114813;-63
2024/03/14 11:16:29;;;;;;;16.30;10.40;;;;;;;15.30;57.93;100298.44;130142;1256;115306;-64
2024/03/14 11:19:33;;;;;;;14.30;10.10;;;;;;;15.32;57.58;100298.85;130146;1275;114738;-64
2024/03/14 11:22:37;;;;;;;13.10;9.40;;;;;;;15.36;57.42;100302.19;130315;1275;114728;-63
2024/03/14 11:25:43;;;;;;;12.00;9.10;;;;;;;15.41;57.20;100299.83;130033;1252;114814;-66
2024/03/14 11:28:45;;;;;;;13.40;9.90;;;;;;;15.45;56.74;100296.89;130325;1254;115134;-64
2024/03/14 11:32:18;;;;;;;13.40;8.60;;;;;;;15.53;56.93;100294.00;130328;1256;114753;-65
2024/03/14 11:35:43;;;;;;;12.80;7.90;;;;;;;15.61;56.00;100295.57;130423;1256;128613;-64
2024/03/14 11:38:47;;;;;;;13.50;9.90;;;;;;;15.69;55.81;100288.52;130080;1259;114748;-65
2024/03/14 11:41:49;;;;;;;12.60;9.10;;;;;;;15.79;55.99;100289.63;130054;1259;114784;-63
2024/03/14 11:44:51;;;;;;;10.70;7.10;;;;;;;15.92;55.69;100282.23;130165;1275;114738;-63
2024/03/14 11:47:54;;;;;;;9.90;7.20;;;;;;;16.06;55.66;100287.00;130272;1275;115448;-64
2024/03/14 11:51:01;;;;;;;11.00;8.10;;;;;;;16.20;55.72;100284.75;130150;1260;116427;-63
2024/03/14 11:54:05;;;;;;;11.70;7.80;;;;;;;16.34;55.72;100280.80;130051;1260;127682;-64
2024/03/14 11:57:16;;;;;;;11.30;7.50;;;;;;;16.50;55.52;100277.30;129866;1275;114753;-65
2024/03/14 12:00:25;;;;;;;10.60;7.10;;;;;;;16.62;54.88;100272.64;130152;1275;114719;-64
2024/03/14 12:03:27;;;;;;;10.60;7.30;;;;;;;16.77;55.14;100268.39;130233;1272;114736;-64
2024/03/14 12:06:31;;;;;;;10.50;8.00;;;;;;;16.96;54.94;100263.98;130364;1275;114769;-63
2024/03/14 12:09:35;;;;;;;10.20;7.20;;;;;;;17.09;54.14;100262.74;130253;1275;114797;-62
2024/03/14 12:12:37;;;;;;;10.40;7.80;;;;;;;17.17;53.37;100260.02;130188;1257;114808;-64
2024/03/14 12:15:41;;;;;;;11.30;8.10;;;;;;;17.23;53.22;100261.17;130228;1256;115201;-63
2024/03/14 12:18:47;;;;;;;9.60;7.30;;;;;;;17.30;53.18;100259.85;130531;1257;114802;-64
2024/03/14 12:21:52;;;;;;;10.10;7.70;;;;;;;17.38;52.97;100254.38;130041;1257;114760;-63
2024/03/14 12:25:00;;;;;;;11.30;8.10;;;;;;;17.49;53.46;100251.70;129863;1275;385365;-65
2024/03/14 12:28:03;;;;;;;11.00;8.20;;;;;;;17.62;53.04;100253.25;130430;1254;115381;-65
2024/03/14 12:31:23;;;;;;;12.30;8.40;;;;;;;17.70;52.52;100253.67;130445;1256;114712;-65
2024/03/14 12:34:26;;;;;;;10.20;6.70;;;;;;;17.69;52.30;100245.26;130530;1257;114714;-65
2024/03/14 12:37:29;;;;;;;10.20;8.00;;;;;;;17.65;51.79;100245.22;130417;1256;114718;-63
2024/03/14 12:40:32;;;;;;;10.70;7.20;;;;;;;17.63;51.71;100240.33;130082;1275;114705;-65
2024/03/14 12:43:34;;;;;;;9.30;7.10;;;;;;;17.65;51.73;100238.75;130240;1275;114789;-65
2024/03/14 12:46:37;;;;;;;10.70;7.40;;;;;;;17.64;51.08;100236.84;130349;1256;114785;-64
2024/03/14 12:49:40;;;;;;;10.40;7.20;;;;;;;17.56;51.21;100234.71;130210;1256;114785;-65
2024/03/14 12:52:43;;;;;;;10.30;7.30;;;;;;;17.53;50.89;100235.88;130253;1257;114810;-64
2024/03/14 12:55:52;;;;;;;11.20;7.90;;;;;;;17.52;50.63;100229.80;130450;1256;114763;-64
2024/03/14 12:58:56;;;;;;;11.50;7.30;;;;;;;17.52;50.21;100232.52;130373;1256;128863;-66
2024/03/14 13:02:01;;;;;;;9.20;7.40;;;;;;;17.53;50.49;100229.06;130431;1254;114702;-63
2024/03/14 13:05:06;;;;;;;10.40;7.60;;;;;;;17.58;50.75;100225.36;130166;1256;114705;-64
2024/03/14 13:08:13;;;;;;;;;;;;;;;17.61;50.40;100223.86;130232;1275;114673;-64
2024/03/14 13:11:16;;;;;;;8.50;6.40;;;;;;;17.54;49.51;100218.66;130176;1275;114736;-64
2024/03/14 13:14:25;;;;;;;10.10;7.10;;;;;;;17.46;50.20;100224.31;130539;1275;114800;-64
2024/03/14 13:17:30;;;;;;;9.80;7.10;;;;;;;17.50;50.39;100216.65;130365;1257;114858;-64
2024/03/14 13:20:35;;;;;;;10.20;6.80;;;;;;;17.51;50.27;100217.48;130530;1257;114795;-64
2024/03/14 13:23:41;;;;;;;13.90;7.30;;;;;;;17.50;50.67;100213.73;130148;1256;114719;-63
2024/03/14 13:26:55;;;;;;;10.00;7.60;;;;;;;17.55;50.80;100214.25;130468;1256;114715;-63
2024/03/14 13:29:57;;;;;;;10.70;7.60;;;;;;;17.60;50.81;100211.86;130399;1258;128738;-64
2024/03/14 13:33:02;;;;;;;11.40;7.80;;;;;;;17.62;50.56;100211.46;130342;1256;115185;-64
2024/03/14 13:36:05;;;;;;;11.00;7.00;;;;;;;17.62;50.44;100210.77;130235;1257;114949;-64
2024/03/14 13:39:12;;;;;;;10.40;7.40;;;;;;;17.63;50.38;100211.05;130446;1275;114788;-64
2024/03/14 13:42:16;;;;;;;9.20;6.90;;;;;;;17.65;50.28;100213.77;130388;1254;114753;-64